createdAt,value
2023-08-31T00:02:26.354Z,22.59
2023-08-31T00:04:56.406Z,22.89
2023-08-31T00:07:24.594Z,22.58
2023-08-31T00:09:54.988Z,22.86
2023-08-31T00:12:23.354Z,22.76
2023-08-31T00:14:53.040Z,22.89
2023-08-31T00:17:20.805Z,22.53
2023-08-31T00:19:48.555Z,22.69
2023-08-31T00:22:16.317Z,22.48
2023-08-31T00:24:44.128Z,22.92
2023-08-31T00:27:13.440Z,22.47
2023-08-31T00:29:41.693Z,22.74
2023-08-31T00:32:12.931Z,22.27
2023-08-31T00:34:40.697Z,22.34
2023-08-31T00:37:10.779Z,22.35
2023-08-31T00:39:38.627Z,21.69
2023-08-31T00:42:06.909Z,21.85
2023-08-31T00:44:34.754Z,21.07
2023-08-31T00:47:03.171Z,20.71
2023-08-31T00:49:32.438Z,21.12
2023-08-31T00:52:00.266Z,21.86
2023-08-31T00:54:28.780Z,21.40
2023-08-31T00:56:58.242Z,21.47
2023-08-31T00:59:27.637Z,21.83
2023-08-31T01:02:05.954Z,22.06
2023-08-31T01:04:43.525Z,21.41
2023-08-31T01:07:23.151Z,21.16
2023-08-31T01:09:59.982Z,21.34
2023-08-31T01:12:33.978Z,21.87
2023-08-31T01:15:08.400Z,22.23
2023-08-31T01:17:43.437Z,22.33
2023-08-31T01:20:17.198Z,22.27
2023-08-31T01:22:49.143Z,22.44
2023-08-31T01:25:20.648Z,22.34
2023-08-31T01:27:48.826Z,21.85
2023-08-31T01:30:17.189Z,21.50
2023-08-31T01:32:47.459Z,22.05
2023-08-31T01:35:19.030Z,21.76
2023-08-31T01:37:54.889Z,21.68
2023-08-31T01:40:28.599Z,21.58
2023-08-31T01:42:57.608Z,21.54
2023-08-31T01:45:27.201Z,21.89
2023-08-31T01:47:55.210Z,21.46
2023-08-31T01:50:25.350Z,21.84
2023-08-31T01:52:54.424Z,21.82
2023-08-31T01:55:22.927Z,21.47
2023-08-31T01:57:52.128Z,21.35
2023-08-31T02:00:28.674Z,21.22
2023-08-31T02:02:57.951Z,21.43
2023-08-31T02:05:25.942Z,21.82
2023-08-31T02:07:54.647Z,21.71
2023-08-31T02:10:24.608Z,21.43
2023-08-31T02:12:53.821Z,21.18
2023-08-31T02:15:21.774Z,21.92
2023-08-31T02:17:49.621Z,21.93
2023-08-31T02:20:21.584Z,22.26
2023-08-31T02:22:50.386Z,22.11
2023-08-31T02:25:18.688Z,21.85
2023-08-31T02:27:47.915Z,21.98
2023-08-31T02:30:18.516Z,22.23
2023-08-31T02:32:46.377Z,22.14
2023-08-31T02:35:15.746Z,22.26
2023-08-31T02:37:43.542Z,21.94
2023-08-31T02:40:13.101Z,22.31
2023-08-31T02:42:40.930Z,22.42
2023-08-31T02:45:09.342Z,22.49
2023-08-31T02:47:38.705Z,21.78
2023-08-31T02:50:08.109Z,21.47
2023-08-31T02:52:35.909Z,22.05
2023-08-31T02:55:04.510Z,22.29
2023-08-31T02:57:32.257Z,21.79
2023-08-31T03:00:00.415Z,22.12
2023-08-31T03:02:28.532Z,22.10
2023-08-31T03:04:58.855Z,22.36
2023-08-31T03:07:26.830Z,22.24
2023-08-31T03:09:54.561Z,22.07
2023-08-31T03:12:23.433Z,22.19
2023-08-31T03:14:51.189Z,21.83
2023-08-31T03:17:19.682Z,21.71
2023-08-31T03:19:47.532Z,21.13
2023-08-31T03:22:16.814Z,21.53
2023-08-31T03:24:44.616Z,21.76
2023-08-31T03:27:12.409Z,21.69
2023-08-31T03:29:41.345Z,21.96
2023-08-31T03:32:09.192Z,22.09
2023-08-31T03:34:36.953Z,22.14
2023-08-31T03:37:04.946Z,22.03
2023-08-31T03:39:35.782Z,20.68
2023-08-31T03:42:03.630Z,20.83
2023-08-31T03:44:31.503Z,21.33
2023-08-31T03:46:59.287Z,21.60
2023-08-31T03:49:28.097Z,21.36
2023-08-31T03:51:55.930Z,21.07
2023-08-31T03:54:23.762Z,21.37
2023-08-31T03:56:54.509Z,21.63
2023-08-31T03:59:22.526Z,21.83
2023-08-31T04:01:50.472Z,21.98
2023-08-31T04:04:18.452Z,21.62
2023-08-31T04:06:48.408Z,21.48
2023-08-31T04:09:16.223Z,21.82
2023-08-31T04:11:44.259Z,21.61
2023-08-31T04:14:13.420Z,21.89
2023-08-31T04:16:41.528Z,22.00
2023-08-31T04:19:10.135Z,21.93
2023-08-31T04:21:39.174Z,22.00
2023-08-31T04:24:08.055Z,22.10
2023-08-31T04:26:35.873Z,21.30
2023-08-31T04:29:04.719Z,21.30
2023-08-31T04:31:33.856Z,21.50
2023-08-31T04:34:01.716Z,21.57
2023-08-31T04:36:29.838Z,21.63
2023-08-31T04:38:57.579Z,21.85
2023-08-31T04:41:25.392Z,21.89
2023-08-31T04:43:53.475Z,20.87
2023-08-31T04:46:21.435Z,20.31
2023-08-31T04:48:50.561Z,19.74
2023-08-31T04:51:33.453Z,20.73
2023-08-31T04:54:01.485Z,21.33
2023-08-31T04:56:34.084Z,21.51
2023-08-31T04:59:03.485Z,21.67
2023-08-31T05:01:31.620Z,21.29
2023-08-31T05:04:01.294Z,21.20
2023-08-31T05:06:29.106Z,21.54
2023-08-31T05:08:57.818Z,21.71
2023-08-31T05:11:28.002Z,21.70
2023-08-31T05:13:55.794Z,21.83
2023-08-31T05:16:23.595Z,21.16
2023-08-31T05:18:51.455Z,21.19
2023-08-31T05:21:20.565Z,21.17
2023-08-31T05:23:48.457Z,20.37
2023-08-31T05:26:16.704Z,20.53
2023-08-31T05:28:45.490Z,20.67
2023-08-31T05:31:13.527Z,20.46
2023-08-31T05:33:41.520Z,20.28
2023-08-31T05:36:09.275Z,20.54
2023-08-31T05:38:38.694Z,20.93
2023-08-31T05:41:09.417Z,20.97
2023-08-31T05:43:41.231Z,21.20
2023-08-31T05:46:11.861Z,20.60
2023-08-31T05:48:39.945Z,21.06
2023-08-31T05:51:07.972Z,21.31
2023-08-31T05:53:35.924Z,21.56
2023-08-31T05:56:06.123Z,21.49
2023-08-31T05:58:37.821Z,21.67
2023-08-31T06:01:06.993Z,21.76
2023-08-31T06:03:35.424Z,21.73
2023-08-31T06:06:04.686Z,21.52
2023-08-31T06:08:32.668Z,21.21
2023-08-31T06:11:03.632Z,21.66
2023-08-31T06:13:32.854Z,21.72
2023-08-31T06:16:01.006Z,21.58
2023-08-31T06:18:30.785Z,21.94
2023-08-31T06:20:59.131Z,21.70
2023-08-31T06:23:26.975Z,21.62
2023-08-31T06:25:54.911Z,21.04
2023-08-31T06:28:22.789Z,21.78
2023-08-31T06:30:52.696Z,21.56
2023-08-31T06:33:21.192Z,21.43
2023-08-31T06:35:53.043Z,20.40
2023-08-31T06:38:21.318Z,21.31
2023-08-31T06:40:49.641Z,20.91
2023-08-31T06:43:17.494Z,21.41
2023-08-31T06:45:45.402Z,21.95
2023-08-31T06:48:14.786Z,22.21
2023-08-31T06:50:42.632Z,22.04
2023-08-31T06:53:10.826Z,22.14
2023-08-31T06:55:39.492Z,22.06
2023-08-31T06:58:09.788Z,22.68
2023-08-31T07:00:39.734Z,22.67
2023-08-31T07:03:10.180Z,22.15
2023-08-31T07:05:44.634Z,22.62
2023-08-31T07:08:12.760Z,21.76
2023-08-31T07:10:40.612Z,22.82
2023-08-31T07:13:10.874Z,23.35
2023-08-31T07:15:39.524Z,23.23
2023-08-31T07:18:07.368Z,23.00
2023-08-31T07:20:35.566Z,22.78
2023-08-31T07:23:07.137Z,22.65
2023-08-31T07:25:35.221Z,22.90
2023-08-31T07:28:04.120Z,23.41
2023-08-31T07:30:34.253Z,23.62
2023-08-31T07:33:11.006Z,24.01
2023-08-31T07:35:45.066Z,23.05
2023-08-31T07:38:14.333Z,23.93
2023-08-31T07:40:43.049Z,24.25
2023-08-31T07:43:13.215Z,25.02
2023-08-31T07:45:41.347Z,25.28
2023-08-31T07:48:09.249Z,26.10
2023-08-31T07:50:37.131Z,25.92
2023-08-31T07:53:05.565Z,25.48
2023-08-31T07:55:34.804Z,25.57
2023-08-31T07:58:03.747Z,25.68
2023-08-31T08:00:31.602Z,25.87
2023-08-31T08:02:59.593Z,26.58
2023-08-31T08:05:27.556Z,26.80
2023-08-31T08:07:55.445Z,26.97
2023-08-31T08:10:23.275Z,26.91
2023-08-31T08:12:52.519Z,26.98
2023-08-31T08:15:20.673Z,26.80
2023-08-31T08:17:49.363Z,25.66
2023-08-31T08:20:17.428Z,26.14
2023-08-31T08:22:48.674Z,25.90
2023-08-31T08:25:18.841Z,25.83
2023-08-31T08:27:46.690Z,24.80
2023-08-31T08:30:16.727Z,24.63
2023-08-31T08:32:45.287Z,25.62
2023-08-31T08:35:13.284Z,25.43
2023-08-31T08:37:41.121Z,25.52
2023-08-31T08:40:09.991Z,25.49
2023-08-31T08:42:43.319Z,25.57
2023-08-31T08:45:17.413Z,26.21
2023-08-31T08:47:46.312Z,27.29
2023-08-31T08:50:14.925Z,28.39
2023-08-31T08:52:43.911Z,24.52
2023-08-31T08:55:12.422Z,27.18
2023-08-31T08:57:40.792Z,26.66
2023-08-31T09:00:12.101Z,25.68
2023-08-31T09:02:41.416Z,25.32
2023-08-31T09:05:11.969Z,26.25
2023-08-31T09:08:02.446Z,27.60
2023-08-31T09:10:37.625Z,27.09
2023-08-31T09:13:08.430Z,26.75
2023-08-31T09:15:42.669Z,26.99
2023-08-31T09:18:16.921Z,26.28
2023-08-31T09:20:46.553Z,25.97
2023-08-31T09:23:14.730Z,26.74
2023-08-31T09:25:48.685Z,27.08
2023-08-31T09:28:17.428Z,26.65
2023-08-31T09:30:45.497Z,27.76
2023-08-31T09:33:18.746Z,26.55
2023-08-31T09:35:52.000Z,26.92
2023-08-31T09:38:20.084Z,27.46
2023-08-31T09:40:48.403Z,27.85
2023-08-31T09:43:22.108Z,28.14
2023-08-31T09:45:50.848Z,28.90
2023-08-31T09:48:21.444Z,28.08
2023-08-31T09:50:50.875Z,28.16
2023-08-31T09:53:19.187Z,28.59
2023-08-31T09:55:49.210Z,29.03
2023-08-31T09:58:20.723Z,29.35
2023-08-31T10:00:50.321Z,29.84
2023-08-31T10:03:19.574Z,29.55
2023-08-31T10:05:51.469Z,29.65
2023-08-31T10:08:20.703Z,28.34
2023-08-31T10:10:48.721Z,28.01
2023-08-31T10:13:17.442Z,30.26
2023-08-31T10:15:46.367Z,28.59
2023-08-31T10:18:14.213Z,27.99
2023-08-31T10:20:45.216Z,27.90
2023-08-31T10:23:15.510Z,28.02
2023-08-31T10:26:05.946Z,27.26
2023-08-31T10:28:41.936Z,28.59
2023-08-31T10:31:11.412Z,27.88
2023-08-31T10:33:43.575Z,27.21
2023-08-31T10:36:12.426Z,26.59
2023-08-31T10:38:41.958Z,27.56
2023-08-31T10:41:24.106Z,28.11
2023-08-31T10:43:53.587Z,27.98
2023-08-31T10:46:29.602Z,27.11
2023-08-31T10:48:59.118Z,27.97
2023-08-31T10:51:29.359Z,28.66
2023-08-31T10:54:10.664Z,27.65
2023-08-31T10:56:55.871Z,28.37
2023-08-31T10:59:24.385Z,28.04
2023-08-31T11:01:59.144Z,27.73
2023-08-31T11:04:28.817Z,27.27
2023-08-31T11:07:15.387Z,27.33
2023-08-31T11:09:48.155Z,27.17
2023-08-31T11:12:18.115Z,27.39
2023-08-31T11:14:46.297Z,28.87
2023-08-31T11:17:14.091Z,28.16
2023-08-31T11:19:43.462Z,28.96
2023-08-31T11:22:13.820Z,29.23
2023-08-31T11:24:44.036Z,27.61
2023-08-31T11:27:13.294Z,27.66
2023-08-31T11:29:45.391Z,27.81
2023-08-31T11:32:15.539Z,28.31
2023-08-31T11:34:44.498Z,28.22
2023-08-31T11:37:17.613Z,29.72
2023-08-31T11:39:51.758Z,29.03
2023-08-31T11:42:22.130Z,29.10
2023-08-31T11:44:51.226Z,27.67
2023-08-31T11:47:19.879Z,29.11
2023-08-31T11:49:49.821Z,28.38
2023-08-31T11:52:20.702Z,29.85
2023-08-31T11:54:54.047Z,29.48
2023-08-31T11:57:27.810Z,28.29
2023-08-31T11:59:56.224Z,28.87
2023-08-31T12:02:24.300Z,27.31
2023-08-31T12:04:54.290Z,28.87
2023-08-31T12:07:22.990Z,28.60
2023-08-31T12:09:51.407Z,28.65
2023-08-31T12:12:23.789Z,28.53
2023-08-31T12:14:54.956Z,28.92
2023-08-31T12:17:22.779Z,28.85
2023-08-31T12:19:50.600Z,28.49
2023-08-31T12:22:18.435Z,27.47
2023-08-31T12:24:46.249Z,27.95
2023-08-31T12:27:14.014Z,28.27
2023-08-31T12:29:43.244Z,28.26
2023-08-31T12:32:11.013Z,28.36
2023-08-31T12:34:38.765Z,28.33
2023-08-31T12:37:06.586Z,29.16
2023-08-31T12:39:34.508Z,29.79
2023-08-31T12:42:12.484Z,29.74
2023-08-31T12:44:50.112Z,29.26
2023-08-31T12:47:18.061Z,29.41
2023-08-31T12:49:45.852Z,27.96
2023-08-31T12:52:15.464Z,28.48
2023-08-31T12:54:43.390Z,28.64
2023-08-31T12:57:11.280Z,29.32
2023-08-31T12:59:39.073Z,28.31
2023-08-31T13:02:11.862Z,28.97
2023-08-31T13:04:41.517Z,28.92
2023-08-31T13:07:11.864Z,27.88
2023-08-31T13:09:41.990Z,28.36
2023-08-31T13:12:12.199Z,28.71
2023-08-31T13:14:40.119Z,28.34
2023-08-31T13:17:09.287Z,28.30
2023-08-31T13:19:37.118Z,28.31
2023-08-31T13:22:07.923Z,28.89
2023-08-31T13:24:35.731Z,29.85
2023-08-31T13:27:03.722Z,29.59
2023-08-31T13:29:33.125Z,29.36
2023-08-31T13:32:00.999Z,29.80
2023-08-31T13:34:30.433Z,29.50
2023-08-31T13:36:58.247Z,28.77
2023-08-31T13:39:26.149Z,29.66
2023-08-31T13:41:54.258Z,28.33
2023-08-31T13:44:22.497Z,29.76
2023-08-31T13:46:50.437Z,29.15
2023-08-31T13:49:18.427Z,28.91
2023-08-31T13:51:47.567Z,28.46
2023-08-31T13:54:15.473Z,27.35
2023-08-31T13:56:44.075Z,28.64
2023-08-31T13:59:14.034Z,29.40
2023-08-31T14:01:42.325Z,29.31
2023-08-31T14:04:10.083Z,28.67
2023-08-31T14:06:38.137Z,29.00
2023-08-31T14:09:09.150Z,29.17
2023-08-31T14:11:37.621Z,28.39
2023-08-31T14:14:10.355Z,28.18
2023-08-31T14:16:38.625Z,28.43
2023-08-31T14:19:06.928Z,28.52
2023-08-31T14:21:34.967Z,29.10
2023-08-31T14:24:02.928Z,28.07
2023-08-31T14:26:32.049Z,28.42
2023-08-31T14:29:00.008Z,27.68
2023-08-31T14:31:27.933Z,28.56
2023-08-31T14:33:56.812Z,28.69
2023-08-31T14:36:24.673Z,27.32
2023-08-31T14:38:52.424Z,28.29
2023-08-31T14:41:20.177Z,27.37
2023-08-31T14:43:49.351Z,27.13
2023-08-31T14:46:17.194Z,28.45
2023-08-31T14:48:45.345Z,28.85
2023-08-31T14:51:14.553Z,28.07
2023-08-31T14:53:43.315Z,27.02
2023-08-31T14:56:11.153Z,27.80
2023-08-31T14:58:39.128Z,27.75
2023-08-31T15:01:08.854Z,27.80
2023-08-31T15:03:37.625Z,28.07
2023-08-31T15:06:05.934Z,27.42
2023-08-31T15:08:38.598Z,28.00
2023-08-31T15:11:06.921Z,28.42
2023-08-31T15:13:34.824Z,28.02
2023-08-31T15:16:03.065Z,28.30
2023-08-31T15:18:32.667Z,28.79
2023-08-31T15:21:00.609Z,29.01
2023-08-31T15:23:28.437Z,28.69
2023-08-31T15:26:01.298Z,28.88
2023-08-31T15:28:29.182Z,28.77
2023-08-31T15:30:57.544Z,28.53
2023-08-31T15:33:25.398Z,27.90
2023-08-31T15:36:06.651Z,28.18
2023-08-31T15:38:35.017Z,28.86
2023-08-31T15:41:04.319Z,28.66
2023-08-31T15:43:35.406Z,27.57
2023-08-31T15:46:05.199Z,28.35
2023-08-31T15:48:33.235Z,28.21
2023-08-31T15:51:01.686Z,28.07
2023-08-31T15:53:31.604Z,27.99
2023-08-31T15:55:59.562Z,28.11
2023-08-31T15:58:28.126Z,28.20
2023-08-31T16:01:02.800Z,28.14
2023-08-31T16:03:32.085Z,28.06
2023-08-31T16:06:01.443Z,28.28
2023-08-31T16:08:30.626Z,27.51
2023-08-31T16:10:59.019Z,27.73
2023-08-31T16:13:27.168Z,27.38
2023-08-31T16:15:54.992Z,28.12
2023-08-31T16:18:22.816Z,27.89
2023-08-31T16:20:50.796Z,28.28
2023-08-31T16:23:18.601Z,28.35
2023-08-31T16:25:47.739Z,27.70
2023-08-31T16:28:15.839Z,27.66
2023-08-31T16:30:48.251Z,27.96
2023-08-31T16:33:16.238Z,28.31
2023-08-31T16:35:44.066Z,28.08
2023-08-31T16:38:12.391Z,28.41
2023-08-31T16:40:40.464Z,28.52
2023-08-31T16:43:09.558Z,28.37
2023-08-31T16:45:37.390Z,28.12
2023-08-31T16:48:06.028Z,28.13
2023-08-31T16:50:35.563Z,28.31
2023-08-31T16:53:04.200Z,28.54
2023-08-31T16:55:32.341Z,26.90
2023-08-31T16:58:03.778Z,27.60
2023-08-31T17:00:33.284Z,27.80
2023-08-31T17:03:01.153Z,27.75
2023-08-31T17:05:30.454Z,27.58
2023-08-31T17:07:58.273Z,26.95
2023-08-31T17:10:26.173Z,27.74
2023-08-31T17:12:54.376Z,26.95
2023-08-31T17:15:22.350Z,26.68
2023-08-31T17:17:53.405Z,26.95
2023-08-31T17:20:23.142Z,26.57
2023-08-31T17:22:50.955Z,27.04
2023-08-31T17:25:19.060Z,27.14
2023-08-31T17:27:46.881Z,27.13
2023-08-31T17:30:15.124Z,27.02
2023-08-31T17:32:43.145Z,26.01
2023-08-31T17:35:12.411Z,26.63
2023-08-31T17:37:40.295Z,26.20
2023-08-31T17:40:09.389Z,26.24
2023-08-31T17:42:38.510Z,26.18
2023-08-31T17:45:07.179Z,25.70
2023-08-31T17:47:35.253Z,25.17
2023-08-31T17:50:04.182Z,25.11
2023-08-31T17:52:33.725Z,25.49
2023-08-31T17:55:01.675Z,25.70
2023-08-31T17:57:30.234Z,26.52
2023-08-31T17:59:58.259Z,26.34
2023-08-31T18:02:28.680Z,26.88
2023-08-31T18:04:56.613Z,26.75
2023-08-31T18:07:24.424Z,26.52
2023-08-31T18:09:53.563Z,26.32
2023-08-31T18:12:21.521Z,26.25
2023-08-31T18:14:51.435Z,25.37
2023-08-31T18:17:20.232Z,25.19
2023-08-31T18:19:48.443Z,25.07
2023-08-31T18:22:16.315Z,25.40
2023-08-31T18:24:44.233Z,25.99
2023-08-31T18:27:13.491Z,25.79
2023-08-31T18:29:41.240Z,25.80
2023-08-31T18:32:09.281Z,25.70
2023-08-31T18:34:37.193Z,26.01
2023-08-31T18:37:05.419Z,26.18
2023-08-31T18:39:33.240Z,26.31
2023-08-31T18:42:03.083Z,26.11
2023-08-31T18:44:32.717Z,25.96
2023-08-31T18:47:00.509Z,26.07
2023-08-31T18:49:28.400Z,25.80
2023-08-31T18:51:59.382Z,25.15
2023-08-31T18:54:27.290Z,25.33
2023-08-31T18:56:55.154Z,25.57
2023-08-31T18:59:23.008Z,26.04
2023-08-31T19:01:54.246Z,25.93
2023-08-31T19:04:22.133Z,26.39
2023-08-31T19:06:53.293Z,25.87
2023-08-31T19:09:21.630Z,26.34
2023-08-31T19:11:49.891Z,26.40
2023-08-31T19:14:17.775Z,24.84
2023-08-31T19:16:45.792Z,25.55
2023-08-31T19:19:16.735Z,25.85
2023-08-31T19:21:46.020Z,25.69
2023-08-31T19:24:13.915Z,26.10
2023-08-31T19:26:42.865Z,26.26
2023-08-31T19:29:11.103Z,25.44
2023-08-31T19:31:39.177Z,24.98
2023-08-31T19:34:07.073Z,25.46
2023-08-31T19:36:36.217Z,25.48
2023-08-31T19:39:04.216Z,25.42
2023-08-31T19:41:33.141Z,26.11
2023-08-31T19:44:00.909Z,25.43
2023-08-31T19:46:28.743Z,24.78
2023-08-31T19:48:56.688Z,24.39
2023-08-31T19:51:24.558Z,24.01
2023-08-31T19:53:54.525Z,24.72
2023-08-31T19:56:22.528Z,25.12
2023-08-31T19:58:50.267Z,25.61
2023-08-31T20:01:20.443Z,25.65
2023-08-31T20:03:48.278Z,25.19
2023-08-31T20:06:16.219Z,25.47
2023-08-31T20:08:44.125Z,25.81
2023-08-31T20:11:13.655Z,25.97
2023-08-31T20:13:41.557Z,25.55
2023-08-31T20:16:10.845Z,25.55
2023-08-31T20:18:38.773Z,25.62
2023-08-31T20:21:06.608Z,23.81
2023-08-31T20:23:34.920Z,24.39
2023-08-31T20:26:03.483Z,24.33
2023-08-31T20:28:32.625Z,24.95
2023-08-31T20:31:01.567Z,25.39
2023-08-31T20:33:29.859Z,25.33
2023-08-31T20:36:08.944Z,24.62
2023-08-31T20:38:37.282Z,25.12
2023-08-31T20:41:06.492Z,25.52
2023-08-31T20:43:35.945Z,25.70
2023-08-31T20:46:08.720Z,25.84
2023-08-31T20:48:37.064Z,25.89
2023-08-31T20:51:05.610Z,25.11
2023-08-31T20:53:33.810Z,24.90
2023-08-31T20:56:09.097Z,25.42
2023-08-31T20:58:40.161Z,25.55
2023-08-31T21:01:08.533Z,24.75
2023-08-31T21:03:40.117Z,23.80
2023-08-31T21:06:08.575Z,23.21
2023-08-31T21:08:36.867Z,23.14
2023-08-31T21:11:04.751Z,23.18
2023-08-31T21:13:37.106Z,23.61
2023-08-31T21:16:07.270Z,24.15
2023-08-31T21:18:37.392Z,22.65
2023-08-31T21:21:06.387Z,23.75
2023-08-31T21:23:34.687Z,24.64
2023-08-31T21:26:03.661Z,24.21
2023-08-31T21:28:31.938Z,22.39
2023-08-31T21:31:02.451Z,22.01
2023-08-31T21:33:32.692Z,22.61
2023-08-31T21:36:01.634Z,22.50
2023-08-31T21:38:29.575Z,22.12
2023-08-31T21:40:57.392Z,21.38
2023-08-31T21:43:25.400Z,21.88
2023-08-31T21:45:53.178Z,21.99
2023-08-31T21:48:20.971Z,22.00
2023-08-31T21:50:50.182Z,23.45
2023-08-31T21:53:18.004Z,23.87
2023-08-31T21:55:45.812Z,22.98
2023-08-31T21:58:13.798Z,22.87
2023-08-31T22:00:41.740Z,22.75
2023-08-31T22:03:09.988Z,23.31
2023-08-31T22:05:40.358Z,24.07
2023-08-31T22:08:11.788Z,23.77
2023-08-31T22:10:40.848Z,23.44
2023-08-31T22:13:09.698Z,23.88
2023-08-31T22:15:40.906Z,24.41
2023-08-31T22:18:09.301Z,24.73
2023-08-31T22:20:37.654Z,24.83
2023-08-31T22:23:09.803Z,24.62
2023-08-31T22:25:37.879Z,24.51
2023-08-31T22:28:06.956Z,24.91
2023-08-31T22:30:35.029Z,25.09
2023-08-31T22:33:03.450Z,25.12
2023-08-31T22:35:32.420Z,25.16
2023-08-31T22:38:00.414Z,24.97
2023-08-31T22:40:29.514Z,25.15
2023-08-31T22:42:59.598Z,25.11
2023-08-31T22:45:27.694Z,25.19
2023-08-31T22:47:58.333Z,25.22
2023-08-31T22:50:26.095Z,24.59
2023-08-31T22:52:53.932Z,24.23
2023-08-31T22:55:24.120Z,23.62
2023-08-31T22:57:53.185Z,23.58
2023-08-31T23:00:21.109Z,24.19
2023-08-31T23:02:49.037Z,24.40
2023-08-31T23:05:17.080Z,23.10
2023-08-31T23:07:44.889Z,22.29
2023-08-31T23:10:19.071Z,23.35
2023-08-31T23:12:50.745Z,23.52
2023-08-31T23:15:20.077Z,23.19
2023-08-31T23:17:48.219Z,22.70
2023-08-31T23:20:16.083Z,23.62
2023-08-31T23:22:44.032Z,23.22
2023-08-31T23:25:11.837Z,23.25
2023-08-31T23:27:39.648Z,23.75
2023-08-31T23:30:08.992Z,23.72
2023-08-31T23:32:38.218Z,23.50
2023-08-31T23:35:07.124Z,23.81
2023-08-31T23:37:37.138Z,24.43
2023-08-31T23:40:09.944Z,24.64
2023-08-31T23:42:38.092Z,24.79
2023-08-31T23:45:07.918Z,24.93
2023-08-31T23:47:36.088Z,25.23
2023-08-31T23:50:05.958Z,24.89
2023-08-31T23:52:34.071Z,25.08
2023-08-31T23:55:01.870Z,25.13
2023-08-31T23:57:30.297Z,24.94
2023-08-31T23:59:58.216Z,24.26
